Time;durP1;ratioP1;P1;durP2;ratioP2;P2;SDS_P1;SDS_P2;PMS_P1;PMS_P2;Temp;Humidity;BMP_temperature;BMP_pressure;BME280_temperature;BME280_humidity;BME280_pressure;Samples;Min_cycle;Max_cycle;Signal;HPM_P1;HPM_P2
2023/10/03 00:00:00;;;;;;;15.40;6.50;;;;;;;9.93;69.49;100210.42;107399;1254;71421;-40
2023/10/03 00:02:33;;;;;;;13.70;6.40;;;;;;;9.88;69.53;100210.73;107403;1256;60442;-40
2023/10/03 00:05:01;;;;;;;15.00;6.40;;;;;;;9.83;69.89;100208.91;107449;1253;60433;-40
2023/10/03 00:07:30;;;;;;;12.10;6.20;;;;;;;9.88;69.98;100207.32;107425;1253;72729;-40
2023/10/03 00:09:57;;;;;;;15.80;7.30;;;;;;;9.97;69.81;100210.64;107449;1253;67592;-40
2023/10/03 00:12:26;;;;;;;15.60;6.70;;;;;;;10.01;69.67;100214.28;107512;1253;71405;-40
2023/10/03 00:14:55;;;;;;;14.60;7.10;;;;;;;10.00;69.59;100211.08;107362;1258;60547;-40
2023/10/03 00:17:23;;;;;;;12.80;6.60;;;;;;;9.98;69.40;100215.48;107376;1254;60264;-40
2023/10/03 00:19:51;;;;;;;15.50;7.00;;;;;;;9.93;69.57;100219.41;107338;1254;73900;-40
2023/10/03 00:22:19;;;;;;;12.70;7.30;;;;;;;9.91;69.50;100218.19;107483;1254;67595;-40
2023/10/03 00:27:46;;;;;;;12.70;6.90;;;;;;;9.83;69.49;100219.46;104071;1292;602673;-40
2023/10/03 00:30:14;;;;;;;13.50;6.30;;;;;;;9.79;69.51;100221.78;106528;1266;60416;-40
2023/10/03 00:32:42;;;;;;;15.30;6.60;;;;;;;9.80;69.65;100222.38;106612;1268;59259;-40
2023/10/03 00:35:11;;;;;;;20.00;7.10;;;;;;;9.81;69.67;100223.64;106672;1264;72277;-40
2023/10/03 00:37:39;;;;;;;15.50;7.00;;;;;;;9.80;69.60;100220.05;106795;1263;67601;-40
2023/10/03 00:40:27;;;;;;;14.40;6.90;;;;;;;9.77;69.57;100221.92;106833;1267;71382;-40
2023/10/03 00:43:00;;;;;;;14.00;7.30;;;;;;;9.73;69.69;100223.71;106764;1265;60144;-40
2023/10/03 00:45:29;;;;;;;15.70;6.80;;;;;;;9.68;69.90;100217.74;106868;1260;59115;-40
2023/10/03 00:47:58;;;;;;;14.40;6.60;;;;;;;9.68;69.80;100215.80;107013;1266;72256;-40
2023/10/03 00:50:27;;;;;;;14.50;6.50;;;;;;;9.73;69.64;100216.20;107061;1261;66290;-40
2023/10/03 00:52:59;;;;;;;12.70;6.60;;;;;;;9.77;69.51;100214.82;106873;1266;72695;-40
2023/10/03 00:55:28;;;;;;;12.30;6.40;;;;;;;9.75;69.56;100216.21;106888;1260;60099;-40
2023/10/03 01:00:41;;;;;;;13.70;7.40;;;;;;;9.69;69.63;100215.91;106905;1261;73096;-40
2023/10/03 01:03:32;;;;;;;13.50;7.40;;;;;;;9.67;69.63;100216.94;106926;1260;67703;-40
2023/10/03 01:06:05;;;;;;;17.70;7.50;;;;;;;9.62;69.69;100217.13;106898;1267;72706;-40
2023/10/03 01:08:36;;;;;;;17.30;7.30;;;;;;;9.55;69.80;100219.05;106876;1267;61691;-40
2023/10/03 01:11:05;;;;;;;15.90;6.50;;;;;;;9.54;69.91;100216.39;106843;1261;60055;-40
2023/10/03 01:13:34;;;;;;;15.60;6.70;;;;;;;9.57;69.85;100216.03;106838;1260;73075;-40
2023/10/03 01:16:05;;;;;;;14.30;7.50;;;;;;;9.55;69.95;100213.87;106856;1260;67840;-40
2023/10/03 01:18:37;;;;;;;14.40;6.90;;;;;;;9.52;70.03;100216.45;107227;1263;71410;-39
2023/10/03 01:21:10;;;;;;;16.60;7.00;;;;;;;9.49;70.09;100216.64;107230;1257;59650;-40
2023/10/03 01:23:40;;;;;;;15.60;8.10;;;;;;;9.47;70.07;100216.97;107306;1256;59535;-40
2023/10/03 01:26:09;;;;;;;13.50;7.00;;;;;;;9.41;70.20;100214.45;107227;1262;73094;-40
2023/10/03 01:28:38;;;;;;;15.90;7.00;;;;;;;9.32;70.46;100208.14;107257;1256;68081;-40
2023/10/03 01:31:06;;;;;;;16.00;7.30;;;;;;;9.32;70.59;100203.27;107275;1260;73144;-40
2023/10/03 01:33:35;;;;;;;18.60;7.30;;;;;;;9.38;70.57;100198.38;107262;1257;59641;-40
2023/10/03 01:36:03;;;;;;;11.50;6.60;;;;;;;9.38;70.62;100198.86;107065;1256;59746;-40
2023/10/03 01:38:31;;;;;;;15.90;7.50;;;;;;;9.35;70.69;100194.96;107190;1257;73078;-40
2023/10/03 01:41:00;;;;;;;14.40;7.50;;;;;;;9.33;70.75;100194.13;107210;1257;67929;-40
2023/10/03 01:43:28;;;;;;;14.80;7.40;;;;;;;9.25;70.65;100193.80;107275;1256;72698;-40
2023/10/03 01:45:56;;;;;;;14.50;7.60;;;;;;;9.18;71.00;100193.95;107196;1257;60103;-40
2023/10/03 01:48:25;;;;;;;16.40;7.60;;;;;;;9.15;70.95;100190.36;107308;1257;59531;-40
2023/10/03 01:50:53;;;;;;;18.40;7.70;;;;;;;9.18;70.78;100195.10;107227;1257;73037;-40
2023/10/03 01:53:22;;;;;;;15.50;7.30;;;;;;;9.22;70.62;100192.67;107234;1262;67589;-39
2023/10/03 01:55:50;;;;;;;14.70;6.70;;;;;;;9.20;70.61;100199.26;107143;1256;71481;-40
2023/10/03 01:58:23;;;;;;;14.80;7.10;;;;;;;9.16;70.64;100191.86;107091;1257;59365;-40
2023/10/03 02:00:51;;;;;;;11.50;7.40;;;;;;;9.11;70.71;100189.29;107097;1260;60083;-40
2023/10/03 02:03:19;;;;;;;17.50;7.90;;;;;;;9.05;70.81;100192.06;107240;1257;73041;-40
2023/10/03 02:05:48;;;;;;;18.80;8.50;;;;;;;8.98;71.05;100189.55;107216;1256;67895;-40
2023/10/03 02:08:16;;;;;;;14.80;7.10;;;;;;;8.94;71.21;100190.77;107246;1260;71441;-40
2023/10/03 02:10:45;;;;;;;15.00;6.80;;;;;;;8.95;71.06;100190.13;107190;1257;61147;-39
2023/10/03 02:13:17;;;;;;;15.70;7.00;;;;;;;8.96;70.93;100196.58;107086;1256;59599;-39
2023/10/03 02:15:49;;;;;;;12.00;6.50;;;;;;;8.85;70.95;100199.57;107286;1262;73105;-39
2023/10/03 02:18:18;;;;;;;17.20;7.30;;;;;;;8.76;71.21;100207.39;107083;1256;65795;-39
2023/10/03 02:21:01;;;;;;;20.30;8.00;;;;;;;8.69;71.50;100202.56;107087;1263;72699;-39
2023/10/03 02:23:30;;;;;;;19.60;8.20;;;;;;;8.65;71.66;100202.33;107215;1257;59643;-39
2023/10/03 02:26:06;;;;;;;22.00;8.70;;;;;;;8.62;71.74;100197.72;107243;1256;60062;-39
2023/10/03 02:28:36;;;;;;;17.50;8.30;;;;;;;8.59;71.88;100200.44;107281;1256;73060;-39
2023/10/03 02:31:07;;;;;;;17.20;7.90;;;;;;;8.65;71.77;100205.48;107258;1256;67627;-39
2023/10/03 02:33:41;;;;;;;14.80;8.10;;;;;;;8.72;71.69;100201.41;107313;1257;72673;-39
2023/10/03 02:36:14;;;;;;;15.50;7.20;;;;;;;8.74;71.69;100205.08;107140;1260;59676;-39
2023/10/03 02:38:43;;;;;;;20.50;9.50;;;;;;;8.71;71.60;100207.02;107292;1257;60062;-39
2023/10/03 02:41:12;;;;;;;18.20;8.20;;;;;;;8.65;71.54;100202.84;107091;1257;73095;-39
2023/10/03 02:43:42;;;;;;;20.80;9.00;;;;;;;8.59;71.71;100199.45;107147;1257;66759;-39
2023/10/03 02:46:14;;;;;;;19.60;8.20;;;;;;;8.54;72.04;100196.94;107118;1258;71446;-39
2023/10/03 02:48:48;;;;;;;17.70;8.00;;;;;;;8.53;72.23;100200.35;107173;1258;61119;-39
2023/10/03 02:51:16;;;;;;;17.20;7.90;;;;;;;8.59;72.31;100196.35;107165;1256;59537;-39
2023/10/03 02:53:45;;;;;;;16.90;8.20;;;;;;;8.61;72.43;100197.23;106998;1261;71824;-39
2023/10/03 02:56:14;;;;;;;20.30;8.50;;;;;;;8.62;72.61;100195.94;107091;1257;67906;-39
2023/10/03 02:58:42;;;;;;;19.90;8.50;;;;;;;8.61;72.60;100192.48;106972;1258;72694;-39
2023/10/03 03:01:11;;;;;;;17.40;8.50;;;;;;;8.59;72.77;100189.85;107100;1259;59647;-39
2023/10/03 03:03:39;;;;;;;22.20;9.60;;;;;;;8.59;72.78;100192.02;106920;1257;59373;-39
2023/10/03 03:06:11;;;;;;;21.80;8.80;;;;;;;8.61;72.85;100191.25;107065;1259;71826;-39
2023/10/03 03:08:40;;;;;;;18.80;9.40;;;;;;;8.70;72.40;100189.98;106916;1257;66427;-39
2023/10/03 03:11:11;;;;;;;19.50;9.30;;;;;;;8.75;71.92;100189.75;106916;1259;71447;-39
2023/10/03 03:13:39;;;;;;;18.70;8.60;;;;;;;8.71;71.88;100189.60;106913;1257;60097;-40
2023/10/03 03:16:07;;;;;;;20.60;9.00;;;;;;;8.69;71.90;100185.51;107054;1257;59741;-39
2023/10/03 03:18:41;;;;;;;22.20;9.50;;;;;;;8.70;71.78;100188.71;107100;1257;71799;-40
2023/10/03 03:21:14;;;;;;;26.50;9.50;;;;;;;8.71;71.57;100190.27;107090;1263;67973;-40
2023/10/03 03:23:55;;;;;;;19.20;8.70;;;;;;;8.71;71.33;100185.79;107072;1260;70870;-40
2023/10/03 03:26:36;;;;;;;;;;;;;;;8.67;71.08;100184.17;107086;1257;59452;-40
2023/10/03 03:29:31;;;;;;;20.90;8.90;;;;;;;8.65;70.87;100188.49;107162;1256;59795;-40
2023/10/03 03:31:55;;;;;;;17.40;7.80;;;;;;;8.62;70.61;100191.34;107041;1257;71086;-39
2023/10/03 03:34:23;;;;;;;16.00;7.80;;;;;;;8.65;70.23;100180.23;107007;1257;67573;-40
2023/10/03 03:36:54;;;;;;;20.20;9.20;;;;;;;8.77;70.12;100191.65;107031;1257;71198;-40
2023/10/03 03:39:26;;;;;;;17.70;8.60;;;;;;;8.80;69.92;100187.84;107161;1257;60053;-40
2023/10/03 03:41:54;;;;;;;20.30;8.80;;;;;;;8.80;69.60;100186.47;107036;1257;60177;-40
2023/10/03 03:44:25;;;;;;;18.90;9.10;;;;;;;8.79;69.26;100185.80;107051;1257;73025;-40
2023/10/03 03:46:53;;;;;;;17.50;8.90;;;;;;;8.77;69.11;100187.63;106954;1258;67622;-39
2023/10/03 03:49:23;;;;;;;17.30;8.80;;;;;;;8.72;69.19;100185.52;107128;1257;72693;-40
2023/10/03 03:51:52;;;;;;;17.60;8.60;;;;;;;8.67;69.01;100185.61;107050;1260;59738;-40
2023/10/03 03:54:19;;;;;;;21.70;8.70;;;;;;;8.63;68.91;100188.79;107039;1257;59308;-40
2023/10/03 03:56:48;;;;;;;16.60;8.10;;;;;;;8.59;68.75;100188.93;107052;1257;73093;-40
2023/10/03 03:59:18;;;;;;;16.80;8.50;;;;;;;8.63;68.63;100182.69;107049;1257;67904;-40
2023/10/03 04:01:46;;;;;;;24.10;8.70;;;;;;;8.68;68.33;100184.14;107051;1259;71400;-39
2023/10/03 04:04:13;;;;;;;17.80;8.50;;;;;;;8.68;68.14;100187.84;107075;1259;59603;-40
2023/10/03 04:06:42;;;;;;;19.50;8.80;;;;;;;8.67;68.16;100187.71;107056;1257;60026;-40
2023/10/03 04:09:10;;;;;;;17.90;8.10;;;;;;;8.67;68.11;100189.55;107135;1257;73120;-40
2023/10/03 04:11:38;;;;;;;19.80;8.20;;;;;;;8.67;68.21;100192.05;107201;1257;67572;-40
2023/10/03 04:14:07;;;;;;;17.50;8.50;;;;;;;8.65;68.30;100193.67;107198;1257;72723;-40
2023/10/03 04:16:39;;;;;;;14.00;8.10;;;;;;;8.63;68.38;100192.95;107060;1263;60096;-40
2023/10/03 04:19:07;;;;;;;20.20;8.90;;;;;;;8.59;68.42;100189.19;107068;1257;60054;-40
2023/10/03 04:21:36;;;;;;;15.60;7.80;;;;;;;8.56;68.46;100185.80;107162;1257;73127;-40
2023/10/03 04:24:06;;;;;;;19.20;8.60;;;;;;;8.58;68.42;100187.91;107145;1263;67907;-40
2023/10/03 04:26:36;;;;;;;14.80;6.80;;;;;;;8.60;68.47;100184.07;107089;1257;70537;-40
2023/10/03 04:29:03;;;;;;;17.10;8.50;;;;;;;8.59;68.85;100186.77;107064;1257;60179;-40
2023/10/03 04:31:32;;;;;;;17.10;8.20;;;;;;;8.60;69.21;100186.13;107074;1257;60046;-39
2023/10/03 04:34:00;;;;;;;19.10;9.60;;;;;;;8.63;69.41;100190.88;107187;1257;73077;-40
2023/10/03 04:36:27;;;;;;;18.60;8.90;;;;;;;8.63;69.43;100197.05;107058;1257;67604;-40
2023/10/03 04:38:55;;;;;;;22.10;9.30;;;;;;;8.56;69.54;100201.79;107032;1257;72698;-39
2023/10/03 04:41:24;;;;;;;15.90;8.20;;;;;;;8.47;69.65;100199.52;107052;1258;60999;-40
2023/10/03 04:43:54;;;;;;;16.10;8.60;;;;;;;8.43;69.98;100200.02;107159;1258;60062;-40
2023/10/03 04:46:22;;;;;;;16.00;8.60;;;;;;;8.46;70.10;100203.52;107177;1257;73856;-39
2023/10/03 04:48:50;;;;;;;21.10;8.80;;;;;;;8.49;70.19;100205.51;107159;1257;65616;-39
2023/10/03 04:51:18;;;;;;;17.20;8.60;;;;;;;8.47;70.37;100206.98;107052;1262;72709;-40
2023/10/03 04:53:46;;;;;;;16.40;8.70;;;;;;;8.38;70.63;100204.16;107106;1257;60274;-40
2023/10/03 04:56:13;;;;;;;19.80;9.40;;;;;;;8.34;70.98;100205.34;107045;1257;60545;-40
2023/10/03 04:58:41;;;;;;;17.10;9.30;;;;;;;8.33;71.11;100206.65;107054;1258;73845;-39
2023/10/03 05:01:09;;;;;;;18.10;9.30;;;;;;;8.32;71.22;100208.77;107153;1257;66435;-40
2023/10/03 05:03:38;;;;;;;20.30;9.40;;;;;;;8.30;71.32;100205.13;107036;1258;72658;-39
2023/10/03 05:06:09;;;;;;;17.60;8.70;;;;;;;8.34;71.38;100205.39;107232;1258;61846;-39
2023/10/03 05:08:37;;;;;;;17.50;9.00;;;;;;;8.47;71.67;100214.08;107094;1258;60465;-40
2023/10/03 05:11:06;;;;;;;18.10;8.90;;;;;;;8.54;71.86;100217.60;107055;1258;73825;-40
2023/10/03 05:13:34;;;;;;;17.70;9.00;;;;;;;8.54;72.33;100225.80;107059;1258;68305;-40
2023/10/03 05:16:02;;;;;;;17.30;9.20;;;;;;;8.54;72.44;100223.00;107032;1259;71636;-39
2023/10/03 05:18:30;;;;;;;17.80;9.70;;;;;;;8.53;72.59;100225.29;107031;1259;60130;-39
2023/10/03 05:20:58;;;;;;;19.60;8.60;;;;;;;8.54;72.85;100232.92;107154;1257;60510;-40
2023/10/03 05:23:26;;;;;;;20.60;9.50;;;;;;;8.57;72.74;100224.30;107075;1258;72920;-40
2023/10/03 05:25:53;;;;;;;17.70;9.30;;;;;;;8.63;72.59;100225.19;107161;1261;67566;-40
2023/10/03 05:28:21;;;;;;;19.60;9.60;;;;;;;8.63;72.81;100218.61;107188;1257;72703;-39
2023/10/03 05:30:50;;;;;;;20.10;9.90;;;;;;;8.58;73.16;100219.02;107182;1259;61112;-40
2023/10/03 05:33:20;;;;;;;18.50;9.80;;;;;;;8.61;73.51;100219.86;107167;1256;60325;-40
2023/10/03 05:35:48;;;;;;;19.10;9.00;;;;;;;8.63;73.97;100215.98;107179;1257;73876;-39
2023/10/03 05:38:15;;;;;;;20.90;9.70;;;;;;;8.67;74.02;100210.42;107159;1256;67797;-40
2023/10/03 05:40:44;;;;;;;19.80;9.40;;;;;;;8.85;74.14;100218.50;107135;1258;71457;-39
2023/10/03 05:43:12;;;;;;;22.10;9.90;;;;;;;8.94;74.38;100215.34;107108;1256;61001;-40
2023/10/03 05:45:39;;;;;;;21.00;10.30;;;;;;;8.99;74.69;100204.73;107185;1256;60397;-40
2023/10/03 05:48:07;;;;;;;18.50;9.60;;;;;;;9.18;74.88;100216.26;107218;1259;73908;-40
2023/10/03 05:50:35;;;;;;;24.90;10.60;;;;;;;9.28;74.89;100214.79;107173;1256;67972;-40
2023/10/03 05:53:06;;;;;;;21.80;11.30;;;;;;;9.42;74.92;100217.17;107063;1263;71768;-40
2023/10/03 05:55:34;;;;;;;19.30;10.70;;;;;;;9.59;74.84;100215.08;107230;1256;60215;-39
2023/10/03 05:58:03;;;;;;;22.50;11.70;;;;;;;9.71;74.72;100219.69;107199;1256;60555;-39
2023/10/03 06:00:32;;;;;;;24.10;11.50;;;;;;;9.79;74.89;100218.98;107227;1256;73839;-39
2023/10/03 06:02:59;;;;;;;30.30;11.60;;;;;;;9.84;75.17;100220.73;107235;1256;67605;-40
2023/10/03 06:05:27;;;;;;;18.40;10.20;;;;;;;9.92;75.29;100221.46;107222;1256;72664;-40
2023/10/03 06:07:55;;;;;;;21.20;10.00;;;;;;;10.06;75.25;100223.59;107128;1256;61751;-40
2023/10/03 06:10:22;;;;;;;19.10;10.30;;;;;;;10.21;74.90;100219.86;107178;1257;60474;-40
2023/10/03 06:12:54;;;;;;;17.10;9.90;;;;;;;10.35;74.51;100220.65;107195;1256;73885;-39
2023/10/03 06:15:24;;;;;;;19.70;9.90;;;;;;;10.46;74.36;100221.23;107163;1256;67583;-40
2023/10/03 06:17:52;;;;;;;21.10;10.30;;;;;;;10.56;74.29;100219.02;107147;1256;72700;-40
2023/10/03 06:20:20;;;;;;;20.70;9.80;;;;;;;10.67;74.51;100218.59;107221;1258;60104;-40
2023/10/03 06:22:48;;;;;;;18.00;9.30;;;;;;;10.80;74.09;100215.05;107188;1256;60521;-40
2023/10/03 06:25:16;;;;;;;20.20;9.50;;;;;;;10.96;73.64;100215.16;107234;1256;72430;-40
2023/10/03 06:27:43;;;;;;;22.90;9.60;;;;;;;11.12;73.24;100215.88;107130;1256;67582;-40
2023/10/03 06:30:14;;;;;;;20.70;9.30;;;;;;;11.26;73.14;100216.85;107149;1262;72704;-40
2023/10/03 06:32:41;;;;;;;17.60;9.20;;;;;;;11.40;72.45;100212.06;107195;1256;60439;-40
2023/10/03 06:35:09;;;;;;;19.00;9.70;;;;;;;11.52;72.25;100212.66;107183;1256;60790;-40
2023/10/03 06:37:40;;;;;;;19.00;9.00;;;;;;;11.66;71.98;100206.13;107163;1256;72637;-40
2023/10/03 06:40:08;;;;;;;18.30;9.40;;;;;;;11.83;71.30;100209.90;107138;1256;67734;-40
2023/10/03 06:42:36;;;;;;;20.10;10.00;;;;;;;12.01;70.71;100201.67;107169;1261;73024;-40
2023/10/03 06:45:05;;;;;;;19.90;10.40;;;;;;;12.15;70.75;100204.07;107181;1259;60541;-40
2023/10/03 06:47:34;;;;;;;21.10;10.00;;;;;;;12.28;70.24;100207.35;107198;1255;60423;-39
2023/10/03 06:50:05;;;;;;;21.00;10.60;;;;;;;12.40;69.09;100208.90;107179;1256;73910;-40
2023/10/03 06:52:34;;;;;;;18.90;10.60;;;;;;;12.51;68.47;100209.80;107204;1256;67923;-40
2023/10/03 06:55:04;;;;;;;20.40;10.70;;;;;;;12.63;68.12;100206.51;107256;1256;72683;-40
2023/10/03 06:57:32;;;;;;;22.40;10.30;;;;;;;12.74;67.88;100205.69;107103;1262;60434;-40
2023/10/03 07:00:00;;;;;;;17.70;9.40;;;;;;;12.90;67.41;100206.52;107221;1256;60538;-40
2023/10/03 07:02:28;;;;;;;20.60;9.90;;;;;;;13.07;66.73;100207.63;107172;1256;72820;-40
2023/10/03 07:04:56;;;;;;;16.50;9.50;;;;;;;13.20;65.85;100204.90;107175;1257;67928;-40
2023/10/03 07:07:24;;;;;;;18.50;10.30;;;;;;;13.32;65.55;100204.23;107175;1256;75073;-40
2023/10/03 07:09:52;;;;;;;17.20;9.40;;;;;;;13.45;64.93;100199.67;107147;1259;59657;-40
2023/10/03 07:12:20;;;;;;;15.70;9.10;;;;;;;13.57;64.50;100198.12;107183;1262;60601;-40
2023/10/03 07:14:48;;;;;;;17.20;8.90;;;;;;;13.69;63.91;100200.06;107169;1256;72869;-40
2023/10/03 07:17:16;;;;;;;16.90;9.60;;;;;;;13.78;63.35;100204.30;107229;1256;67016;-40
2023/10/03 07:19:46;;;;;;;22.20;9.50;;;;;;;13.87;63.01;100202.13;107205;1257;72802;-40
2023/10/03 07:22:14;;;;;;;17.20;9.60;;;;;;;13.97;62.64;100204.03;107032;1256;60340;-40
2023/10/03 07:24:43;;;;;;;21.20;11.00;;;;;;;14.07;62.28;100207.80;107301;1256;60325;-40
2023/10/03 07:27:13;;;;;;;21.20;10.00;;;;;;;14.20;61.93;100201.35;107235;1257;73903;-39
2023/10/03 07:29:44;;;;;;;16.40;9.20;;;;;;;14.36;61.90;100199.23;107197;1257;67615;-40
2023/10/03 07:32:13;;;;;;;17.90;9.10;;;;;;;14.49;61.43;100197.10;107095;1257;72747;-40
2023/10/03 07:34:42;;;;;;;15.40;8.80;;;;;;;14.61;60.81;100195.73;107207;1257;60928;-40
2023/10/03 07:37:10;;;;;;;22.40;9.20;;;;;;;14.72;60.51;100190.38;107255;1257;60320;-40
2023/10/03 07:39:40;;;;;;;17.20;8.90;;;;;;;14.84;59.93;100190.48;107153;1257;73895;-40
2023/10/03 07:42:09;;;;;;;15.60;8.20;;;;;;;14.96;58.85;100184.50;107286;1257;66635;-40
2023/10/03 07:44:36;;;;;;;14.90;7.50;;;;;;;15.05;58.39;100182.21;107207;1260;73787;-40
2023/10/03 07:47:04;;;;;;;15.50;8.00;;;;;;;15.13;57.52;100182.56;107148;1257;60533;-40
2023/10/03 07:49:32;;;;;;;15.30;8.00;;;;;;;15.22;57.30;100183.69;107238;1257;60330;-40
2023/10/03 07:52:04;;;;;;;14.10;8.00;;;;;;;15.30;57.15;100189.17;107178;1257;73841;-40
2023/10/03 07:54:33;;;;;;;15.50;8.90;;;;;;;15.40;57.20;100199.06;107165;1257;68001;-40
2023/10/03 07:57:05;;;;;;;14.70;8.50;;;;;;;15.51;56.89;100194.69;107145;1257;73029;-40
2023/10/03 07:59:33;;;;;;;15.70;8.50;;;;;;;15.62;56.48;100202.33;107286;1257;60396;-40
2023/10/03 08:02:05;;;;;;;13.40;8.10;;;;;;;15.72;55.82;100201.59;107137;1262;60049;-40
2023/10/03 08:04:33;;;;;;;14.10;8.10;;;;;;;15.81;55.82;100201.53;107197;1258;73869;-40
2023/10/03 08:07:04;;;;;;;15.60;7.70;;;;;;;15.91;56.05;100205.48;107152;1257;66601;-40
2023/10/03 08:09:33;;;;;;;16.80;8.40;;;;;;;16.02;55.44;100205.20;107181;1257;73794;-40
2023/10/03 08:12:11;;;;;;;14.30;8.40;;;;;;;16.12;55.21;100211.09;107161;1257;62411;-40
2023/10/03 08:14:40;;;;;;;12.60;7.60;;;;;;;16.24;54.98;100211.36;107163;1257;62278;-40
2023/10/03 08:17:11;;;;;;;13.10;7.40;;;;;;;16.35;54.51;100208.64;107145;1257;75287;-40
2023/10/03 08:19:43;;;;;;;17.40;8.30;;;;;;;16.44;53.54;100200.27;107210;1257;70267;-40
2023/10/03 08:22:12;;;;;;;14.10;7.40;;;;;;;16.52;53.50;100201.20;107153;1259;72997;-40
2023/10/03 08:24:43;;;;;;;13.30;8.10;;;;;;;16.60;53.53;100201.14;107118;1258;62420;-40
2023/10/03 08:27:18;;;;;;;13.80;7.30;;;;;;;16.69;52.98;100203.95;107134;1258;60907;-40
2023/10/03 08:29:58;;;;;;;15.30;7.40;;;;;;;16.76;52.68;100204.78;107137;1257;73845;-40
2023/10/03 08:32:26;;;;;;;14.30;7.50;;;;;;;16.84;52.30;100201.25;107225;1257;69032;-40
2023/10/03 08:34:54;;;;;;;14.40;7.80;;;;;;;16.93;52.19;100202.17;107146;1257;72716;-40
2023/10/03 08:37:21;;;;;;;12.90;7.50;;;;;;;17.02;51.53;100194.01;107177;1259;62416;-40
2023/10/03 08:39:53;;;;;;;13.70;7.60;;;;;;;17.10;51.34;100190.45;107265;1257;60385;-40
2023/10/03 08:42:34;;;;;;;12.60;6.90;;;;;;;17.20;51.82;100187.07;107424;1253;73903;-40
2023/10/03 08:45:16;;;;;;;11.90;6.70;;;;;;;17.32;51.52;100185.40;107487;1253;66021;-40
2023/10/03 08:47:48;;;;;;;12.30;6.50;;;;;;;17.42;50.00;100181.37;107462;1253;72762;-40
2023/10/03 08:50:29;;;;;;;12.50;6.50;;;;;;;17.47;49.86;100182.41;107429;1254;60402;-40
2023/10/03 08:53:12;;;;;;;12.90;7.50;;;;;;;17.54;50.05;100180.17;107472;1253;62335;-40
2023/10/03 08:55:43;;;;;;;17.00;8.10;;;;;;;17.64;49.47;100173.41;107423;1253;73831;-40
2023/10/03 08:58:14;;;;;;;14.60;7.70;;;;;;;17.74;49.01;100165.54;107475;1253;67592;-41
2023/10/03 09:00:45;;;;;;;14.30;7.60;;;;;;;17.85;48.73;100162.34;107443;1253;73219;-41
2023/10/03 09:03:15;;;;;;;14.70;7.80;;;;;;;17.95;48.65;100160.25;107458;1254;60468;-41
2023/10/03 09:05:43;;;;;;;14.60;8.00;;;;;;;18.04;48.23;100159.33;107447;1253;60554;-40
2023/10/03 09:08:13;;;;;;;12.50;7.80;;;;;;;18.12;47.87;100153.69;107416;1253;73834;-42
2023/10/03 09:10:51;;;;;;;13.30;7.80;;;;;;;18.24;47.31;100156.98;107548;1253;67634;-40
2023/10/03 09:13:23;;;;;;;15.50;7.70;;;;;;;18.35;47.35;100154.72;107426;1256;72709;-40
2023/10/03 09:16:02;;;;;;;15.00;8.20;;;;;;;18.48;47.19;100157.23;107439;1254;60444;-39
2023/10/03 09:18:31;;;;;;;14.10;8.30;;;;;;;18.62;46.77;100157.33;107275;1253;60311;-39
2023/10/03 09:20:59;;;;;;;13.20;8.20;;;;;;;18.73;46.39;100157.63;107412;1258;76175;-39
2023/10/03 09:23:27;;;;;;;16.20;8.50;;;;;;;18.86;45.95;100161.85;107500;1255;67723;-39
2023/10/03 09:25:58;;;;;;;14.80;8.10;;;;;;;18.97;45.92;100161.27;107499;1253;72676;-39
2023/10/03 09:28:35;;;;;;;14.30;7.90;;;;;;;19.09;45.38;100154.25;107454;1253;60579;-39
2023/10/03 09:31:08;;;;;;;12.30;8.30;;;;;;;19.21;44.32;100157.81;107480;1253;60162;-39
2023/10/03 09:33:38;;;;;;;12.20;7.50;;;;;;;19.30;44.12;100158.73;107501;1253;72582;-39
2023/10/03 09:36:07;;;;;;;14.10;7.70;;;;;;;19.38;43.84;100159.33;107479;1253;68155;-39
2023/10/03 09:38:45;;;;;;;12.70;7.30;;;;;;;19.46;43.75;100159.71;107466;1253;72654;-39
2023/10/03 09:41:17;;;;;;;12.30;7.60;;;;;;;19.55;43.59;100154.02;107455;1253;60422;-39
2023/10/03 09:43:47;;;;;;;15.10;8.40;;;;;;;19.69;43.50;100150.17;107464;1253;60356;-39
2023/10/03 09:46:23;;;;;;;13.90;7.60;;;;;;;19.82;42.59;100147.02;107529;1253;72637;-39
2023/10/03 09:48:54;;;;;;;12.30;7.20;;;;;;;19.94;42.45;100144.76;107488;1253;67557;-39
2023/10/03 09:51:36;;;;;;;13.90;8.00;;;;;;;20.01;42.21;100151.71;107411;1253;72927;-39
2023/10/03 09:54:06;;;;;;;13.00;7.50;;;;;;;20.04;42.28;100147.91;107472;1253;60435;-39
2023/10/03 09:56:40;;;;;;;13.90;8.00;;;;;;;20.04;42.51;100148.39;107544;1253;60346;-39
2023/10/03 09:59:08;;;;;;;14.90;7.40;;;;;;;20.04;42.53;100147.92;107471;1253;73860;-39
2023/10/03 10:01:39;;;;;;;14.10;8.00;;;;;;;20.02;42.01;100144.94;107443;1253;67786;-39
2023/10/03 10:04:08;;;;;;;11.00;7.10;;;;;;;19.98;41.87;100144.02;107481;1253;75032;-39
2023/10/03 10:07:16;;;;;;;13.30;7.70;;;;;;;19.89;41.94;100143.92;107454;1253;60492;-39
2023/10/03 10:09:55;;;;;;;12.40;6.90;;;;;;;19.76;42.09;100145.27;107500;1253;60407;-39
2023/10/03 10:12:23;;;;;;;13.00;7.60;;;;;;;19.69;41.93;100144.52;107463;1253;76194;-39
2023/10/03 10:15:34;;;;;;;12.30;7.30;;;;;;;19.67;41.39;100140.83;107552;1253;68217;-39
2023/10/03 10:17:55;;;;;;;12.00;7.10;;;;;;;19.74;41.53;100131.20;107398;1253;72694;-39
2023/10/03 10:20:37;;;;;;;7.70;5.20;;;;;;;19.86;41.42;100127.59;107411;1254;60530;-39
2023/10/03 10:25:51;;;;;;;12.70;7.60;;;;;;;20.24;40.53;100112.91;107459;1253;73847;-39
2023/10/03 10:28:23;;;;;;;11.70;6.60;;;;;;;20.45;39.71;100113.30;107453;1253;66873;-39
2023/10/03 10:31:17;;;;;;;12.50;7.40;;;;;;;20.55;39.19;100107.08;107468;1254;72663;-39
2023/10/03 10:33:46;;;;;;;12.90;8.00;;;;;;;20.73;39.07;100105.87;107527;1253;60429;-39
2023/10/03 10:36:18;;;;;;;10.80;7.00;;;;;;;20.85;39.02;100104.64;107450;1253;60488;-39
2023/10/03 10:38:49;;;;;;;10.70;6.90;;;;;;;20.97;39.00;100101.81;107456;1258;73834;-39
2023/10/03 10:44:14;;;;;;;10.90;7.00;;;;;;;21.14;37.90;100097.15;107444;1254;72825;-39
2023/10/03 10:46:47;;;;;;;12.30;6.90;;;;;;;21.24;38.18;100094.98;107479;1253;60418;-39
2023/10/03 10:49:40;;;;;;;11.80;6.80;;;;;;;21.37;38.32;100092.21;107494;1253;60316;-40
2023/10/03 10:52:09;;;;;;;10.70;7.40;;;;;;;21.54;37.40;100089.79;107421;1253;72977;-39
2023/10/03 10:54:39;;;;;;;11.60;7.40;;;;;;;21.60;36.89;100083.84;107460;1253;67990;-39
2023/10/03 10:57:10;;;;;;;12.20;7.30;;;;;;;21.68;37.21;100089.80;107542;1257;72779;-39
2023/10/03 10:59:41;;;;;;;12.70;7.40;;;;;;;21.82;37.22;100081.70;107433;1253;60506;-39
2023/10/03 11:02:28;;;;;;;13.90;8.30;;;;;;;22.00;37.08;100083.58;107414;1253;60445;-39
2023/10/03 11:04:57;;;;;;;11.40;7.70;;;;;;;22.19;36.15;100087.06;107471;1253;74095;-39
2023/10/03 11:07:29;;;;;;;12.40;7.40;;;;;;;22.28;36.32;100079.02;107439;1253;66775;-39
2023/10/03 11:10:04;;;;;;;11.20;7.30;;;;;;;22.45;36.43;100070.91;107378;1254;72690;-39
2023/10/03 11:13:03;;;;;;;13.20;8.20;;;;;;;22.71;35.67;100076.73;107388;1255;60444;-39
2023/10/03 11:15:31;;;;;;;12.40;6.90;;;;;;;22.82;35.72;100074.02;107423;1253;60444;-39
2023/10/03 11:17:59;;;;;;;13.20;7.40;;;;;;;22.84;35.43;100076.58;107368;1253;72577;-39
2023/10/03 11:20:27;;;;;;;12.20;7.60;;;;;;;22.86;35.22;100072.20;107404;1255;69111;-39
2023/10/03 11:22:55;;;;;;;14.20;8.00;;;;;;;22.87;34.75;100073.75;107434;1253;72654;-39
2023/10/03 11:25:25;;;;;;;10.50;7.20;;;;;;;22.92;34.58;100071.53;107423;1259;61183;-39
2023/10/03 11:27:54;;;;;;;11.40;7.90;;;;;;;22.96;34.50;100072.77;107436;1256;60358;-39
2023/10/03 11:30:22;;;;;;;14.50;8.20;;;;;;;22.97;34.79;100065.58;107414;1253;72656;-39
2023/10/03 11:32:50;;;;;;;11.70;7.30;;;;;;;22.99;34.92;100063.79;107402;1253;68020;-39
2023/10/03 11:35:20;;;;;;;13.20;7.60;;;;;;;23.01;34.88;100063.04;107369;1253;73156;-39
2023/10/03 11:37:49;;;;;;;11.30;7.30;;;;;;;22.96;34.45;100062.52;107415;1255;60418;-39